Columbus, GA

10:30 AM EDT on May 28, 2017 (GMT -0400)
Hilton Heights- Lynda Lane | | Change Station

Elev 387 ft 32.49 °N, 84.95 °W | Updated 12 seconds ago

Partly Cloudy
Partly Cloudy
81.3 °F
Feels Like 85 °F
N
4.0
Wind Variable Wind from NNE
Gusts 4.9 mph

Today
High -- | Low -- °F
--% Chance of Precip.
Yesterday
High -- | Low -- °F
Precip. -- in
Pressure 29.99 in
Visibility 10.0 miles
Clouds Scattered Clouds 1900 ft
Heat Index 85 °F
Dew Point 71 °F
Humidity 70%
Rainfall 0.00 in
Snow Depth Not available.
6:34 AM 8:40 PM
Waxing Crescent, 11% visible
METAR KCSG 281351Z 26010KT 10SM SCT019 28/22 A3000 RMK AO2 SLP154 T02780217
Pressure 29.99 in
Visibility 10.0 miles
Clouds Scattered Clouds 1900 ft
Heat Index 85 °F
Dew Point 71 °F
Humidity 70%
Rainfall 0.00 in
Snow Depth Not available.
6:34 AM 8:40 PM
Waxing Crescent, 11% visible
METAR KCSG 281351Z 26010KT 10SM SCT019 28/22 A3000 RMK AO2 SLP154 T02780217

Get Severe Weather Alerts

Thanks for signing up!

Be on the lookout for a verification email in your inbox.

You'll start receiving the daily forecast at 6 AM.

×

10-Day Weather Forecast

Almanac

Astronomy

May. 28, 2017 Rise Set
Actual Time
Civil Twilight
Nautical Twilight
Astronomical Twilight
Moon
Length of Visible Light
Length of Day
Tomorrow will be .
, % of the Moon is Illuminated

Today's Extremes

State Highs State Lows

Community

WunderPhotos

Category 6

Welcome to Category 6. This is the collective home for Weather Underground's featured writeups by Dr. Jeff Masters (right), Bob Henson (left), Chris Burt, and other regular contributors.

Nearby

Air Quality

  Air Quality AQ Index Pollutant
Not available.

Snow Depth

Station Depth Elevation

Earthquake Activity

City Distance Mag. Time & Date
Minimum magnitude displayed is 2.5.

Coastal Water Temperatures

Place Temperature

Stations

Nearby Weather Stations

Station Location Temp. Windchill Dew Point Humidity Wind Precip. Elev Updated Type
                   

Watches & Warnings

There are currently no watches in effect.